Akin, Georgia
Current Conditions -  °F | °C
As of 1:15 PM on Monday 26 Jan 2015 (Local Time) from KCWV Reporting Station
Clear Clear  
Wind Chill: 11°   Ceiling: Unl
Heat Index: 11°   Visibility: 10mi
Dew Point:   Wind: 17mph
Humidity: 67%   Direction: 280°W
Pressure: 29.75"   Gusts: 25mph
Location:  32.2794°N, 81.623°W
Report Text: KCWV 261815Z AUTO 28015G22KT 10SM CLR 11/05 A2975 RMK AO2
Loading
Personal Weather Stations






























Interactive Weather Map New forecast layout! Learn more

10-Day Weather Forecast

Advertisements
Track Severe Weather on mobile